sensor_id;sensor_type;location;lat;lon;timestamp;pressure;altitude;pressure_sealevel;temperature;humidity
66664;BME280;59683;51.428;-1.994;2023-02-10T05:38:49;102822.53;;;-5.86;100.00
66664;BME280;59683;51.428;-1.994;2023-02-10T05:41:33;102826.00;;;-5.84;100.00
66664;BME280;59683;51.428;-1.994;2023-02-10T05:43:59;102826.88;;;-5.83;100.00
66664;BME280;59683;51.428;-1.994;2023-02-10T05:46:24;102813.81;;;-5.91;100.00
66664;BME280;59683;51.428;-1.994;2023-02-10T05:48:49;102817.38;;;-5.86;100.00
66664;BME280;59683;51.428;-1.994;2023-02-10T05:51:15;102814.81;;;-5.86;100.00
66664;BME280;59683;51.428;-1.994;2023-02-10T05:53:40;102823.44;;;-5.84;100.00
66664;BME280;59683;51.428;-1.994;2023-02-10T05:56:06;102825.16;;;-5.83;100.00
66664;BME280;59683;51.428;-1.994;2023-02-10T05:58:32;102819.13;;;-5.85;100.00
66664;BME280;59683;51.428;-1.994;2023-02-10T06:00:58;102819.97;;;-5.86;100.00
66664;BME280;59683;51.428;-1.994;2023-02-10T06:03:24;102819.22;;;-5.80;100.00
66664;BME280;59683;51.428;-1.994;2023-02-10T06:05:49;102806.25;;;-5.83;100.00
66664;BME280;59683;51.428;-1.994;2023-02-10T06:08:15;102808.81;;;-5.85;100.00
66664;BME280;59683;51.428;-1.994;2023-02-10T06:10:40;102797.47;;;-5.92;100.00
66664;BME280;59683;51.428;-1.994;2023-02-10T06:13:06;102814.75;;;-5.88;100.00
66664;BME280;59683;51.428;-1.994;2023-02-10T06:15:31;102819.03;;;-5.88;100.00
66664;BME280;59683;51.428;-1.994;2023-02-10T06:17:57;102814.69;;;-5.91;100.00
66664;BME280;59683;51.428;-1.994;2023-02-10T06:20:22;102824.31;;;-5.83;100.00
66664;BME280;59683;51.428;-1.994;2023-02-10T06:22:48;102802.53;;;-5.98;100.00
66664;BME280;59683;51.428;-1.994;2023-02-10T06:25:13;102795.69;;;-5.96;100.00
66664;BME280;59683;51.428;-1.994;2023-02-10T06:27:39;102806.13;;;-5.90;100.00
66664;BME280;59683;51.428;-1.994;2023-02-10T06:30:05;102787.16;;;-5.93;100.00
66664;BME280;59683;51.428;-1.994;2023-02-10T06:32:31;102808.91;;;-5.80;100.00
66664;BME280;59683;51.428;-1.994;2023-02-10T06:34:57;102796.00;;;-5.82;100.00
66664;BME280;59683;51.428;-1.994;2023-02-10T06:37:23;102823.94;;;-5.63;100.00
66664;BME280;59683;51.428;-1.994;2023-02-10T06:39:49;102814.56;;;-5.59;100.00
66664;BME280;59683;51.428;-1.994;2023-02-10T06:42:15;102796.28;;;-5.68;100.00
66664;BME280;59683;51.428;-1.994;2023-02-10T06:44:42;102802.34;;;-5.68;100.00
66664;BME280;59683;51.428;-1.994;2023-02-10T06:47:07;102800.56;;;-5.69;100.00
66664;BME280;59683;51.428;-1.994;2023-02-10T06:49:33;102811.09;;;-5.59;100.00
66664;BME280;59683;51.428;-1.994;2023-02-10T06:52:00;102826.16;;;-5.39;100.00
66664;BME280;59683;51.428;-1.994;2023-02-10T06:54:26;102812.31;;;-5.44;100.00
66664;BME280;59683;51.428;-1.994;2023-02-10T06:56:52;102801.19;;;-5.41;100.00
66664;BME280;59683;51.428;-1.994;2023-02-10T06:59:18;102833.31;;;-5.27;100.00
66664;BME280;59683;51.428;-1.994;2023-02-10T07:01:43;102836.81;;;-5.23;100.00
66664;BME280;59683;51.428;-1.994;2023-02-10T07:04:10;102842.00;;;-5.23;100.00
66664;BME280;59683;51.428;-1.994;2023-02-10T07:06:36;102815.19;;;-5.30;100.00
66664;BME280;59683;51.428;-1.994;2023-02-10T07:09:03;102832.75;;;-5.14;100.00
66664;BME280;59683;51.428;-1.994;2023-02-10T07:11:32;102820.59;;;-5.18;100.00
66664;BME280;59683;51.428;-1.994;2023-02-10T07:13:58;102818.97;;;-5.14;100.00
66664;BME280;59683;51.428;-1.994;2023-02-10T07:16:24;102831.16;;;-5.07;100.00
66664;BME280;59683;51.428;-1.994;2023-02-10T07:18:50;102816.38;;;-5.14;100.00
66664;BME280;59683;51.428;-1.994;2023-02-10T07:21:20;102812.25;;;-5.04;100.00
66664;BME280;59683;51.428;-1.994;2023-02-10T07:50:36;102832.19;;;-4.03;100.00
66664;BME280;59683;51.428;-1.994;2023-02-10T08:14:18;102888.16;;;-2.91;100.00
66664;BME280;59683;51.428;-1.994;2023-02-10T08:16:45;102885.66;;;-2.82;100.00
66664;BME280;59683;51.428;-1.994;2023-02-10T08:21:48;102877.25;;;-2.64;100.00
66664;BME280;59683;51.428;-1.994;2023-02-10T08:42:52;102880.88;;;-1.53;100.00
66664;BME280;59683;51.428;-1.994;2023-02-10T09:07:27;102898.72;;;-0.35;100.00
66664;BME280;59683;51.428;-1.994;2023-02-10T09:09:55;102914.38;;;-0.18;100.00
66664;BME280;59683;51.428;-1.994;2023-02-10T09:28:03;102941.31;;;0.33;100.00
66664;BME280;59683;51.428;-1.994;2023-02-10T09:37:13;102944.78;;;0.67;100.00
66664;BME280;59683;51.428;-1.994;2023-02-10T12:55:13;102805.44;;;8.48;100.00
66664;BME280;59683;51.428;-1.994;2023-02-10T12:57:45;102801.66;;;8.56;100.00
66664;BME280;59683;51.428;-1.994;2023-02-10T13:03:33;102794.19;;;8.67;100.00
66664;BME280;59683;51.428;-1.994;2023-02-10T13:09:38;102788.81;;;8.93;100.00
66664;BME280;59683;51.428;-1.994;2023-02-10T13:14:31;102779.38;;;9.10;100.00
66664;BME280;59683;51.428;-1.994;2023-02-10T13:16:58;102783.94;;;9.28;100.00
66664;BME280;59683;51.428;-1.994;2023-02-10T14:46:24;102733.59;;;8.40;100.00
66664;BME280;59683;51.428;-1.994;2023-02-10T17:00:28;102773.16;;;7.36;100.00
66664;BME280;59683;51.428;-1.994;2023-02-10T18:20:52;102815.72;;;7.23;100.00
66664;BME280;59683;51.428;-1.994;2023-02-10T18:23:21;102825.38;;;7.23;100.00
66664;BME280;59683;51.428;-1.994;2023-02-10T18:25:53;102823.63;;;7.22;100.00
66664;BME280;59683;51.428;-1.994;2023-02-10T19:29:48;102807.91;;;6.91;100.00
66664;BME280;59683;51.428;-1.994;2023-02-10T19:33:00;102807.75;;;6.95;100.00
66664;BME280;59683;51.428;-1.994;2023-02-10T19:35:31;102818.16;;;7.00;100.00
66664;BME280;59683;51.428;-1.994;2023-02-10T19:38:02;102824.22;;;7.03;100.00
66664;BME280;59683;51.428;-1.994;2023-02-10T19:41:20;102813.00;;;6.95;100.00
